Time;durP1;ratioP1;P1;durP2;ratioP2;P2;SDS_P1;SDS_P2;PMS_P1;PMS_P2;Temp;Humidity;BMP_temperature;BMP_pressure;BME280_temperature;BME280_humidity;BME280_pressure;Samples;Min_cycle;Max_cycle;Signal;HPM_P1;HPM_P2
2023/08/12 00:01:09;;;;;;;0.10;0.10;;;22.60;78.30;;;;;;5026948;28;20050;-77
2023/08/12 00:03:35;;;;;;;0.00;0.00;;;22.50;78.40;;;;;;5025454;28;20186;-77
2023/08/12 00:06:01;;;;;;;0.10;0.10;;;22.60;78.40;;;;;;5028366;28;20408;-77
2023/08/12 00:08:27;;;;;;;0.10;0.10;;;22.50;78.30;;;;;;5009724;28;20049;-77
2023/08/12 00:10:52;;;;;;;0.10;0.10;;;22.50;78.30;;;;;;5007851;28;20048;-77
2023/08/12 00:13:18;;;;;;;0.10;0.10;;;22.50;78.30;;;;;;5026607;28;20060;-77
2023/08/12 00:15:44;;;;;;;0.15;0.10;;;22.50;78.20;;;;;;5026447;28;20038;-77
2023/08/12 00:18:10;;;;;;;0.10;0.10;;;22.50;78.20;;;;;;5028490;28;20040;-77
2023/08/12 00:20:37;;;;;;;0.10;0.10;;;22.60;78.30;;;;;;5027642;28;20407;-77
2023/08/12 00:23:03;;;;;;;0.00;0.00;;;22.60;78.30;;;;;;5025270;28;20042;-77
2023/08/12 00:25:29;;;;;;;0.05;0.05;;;22.50;78.30;;;;;;5027439;28;20116;-77
2023/08/12 00:27:54;;;;;;;0.00;0.00;;;22.50;79.00;;;;;;5026993;28;20076;-77
2023/08/12 00:30:20;;;;;;;0.10;0.10;;;22.60;78.20;;;;;;5028210;28;20411;-77
2023/08/12 00:32:45;;;;;;;0.10;0.10;;;22.50;78.30;;;;;;5027289;28;20128;-77
2023/08/12 00:35:11;;;;;;;0.00;0.00;;;22.50;78.40;;;;;;5009124;28;20046;-77
2023/08/12 00:37:37;;;;;;;0.10;0.10;;;22.60;78.40;;;;;;5009717;28;20041;-77
2023/08/12 00:40:03;;;;;;;0.10;0.10;;;22.50;78.30;;;;;;5027642;28;20057;-77
2023/08/12 00:42:28;;;;;;;0.10;0.10;;;22.50;78.40;;;;;;4993973;28;20049;-77
2023/08/12 00:44:54;;;;;;;0.10;0.10;;;22.50;78.30;;;;;;5009858;28;20041;-77
2023/08/12 00:47:20;;;;;;;0.10;0.10;;;22.50;78.30;;;;;;5008881;28;20059;-77
2023/08/12 00:49:46;;;;;;;0.10;0.10;;;22.50;78.30;;;;;;5026600;28;20045;-77
2023/08/12 00:52:13;;;;;;;0.10;0.10;;;22.50;78.30;;;;;;5026688;28;20120;-77
2023/08/12 00:54:38;;;;;;;1.23;0.10;;;22.50;78.20;;;;;;5027712;28;20038;-77
2023/08/12 00:57:04;;;;;;;0.05;0.05;;;22.50;78.20;;;;;;5026608;28;20103;-77
2023/08/12 00:59:29;;;;;;;0.05;0.05;;;22.50;78.20;;;;;;5026939;28;20045;-77
2023/08/12 01:01:55;;;;;;;0.00;0.00;;;22.50;79.00;;;;;;5009337;28;20125;-77
2023/08/12 01:04:20;;;;;;;0.10;0.10;;;22.50;78.30;;;;;;5009667;28;20116;-77
2023/08/12 01:06:46;;;;;;;0.15;0.00;;;22.50;78.20;;;;;;5026754;28;20561;-77
2023/08/12 01:09:12;;;;;;;0.10;0.10;;;22.50;78.30;;;;;;4991613;28;20110;-77
2023/08/12 01:11:53;;;;;;;0.00;0.00;;;22.50;78.30;;;;;;5010376;28;20044;-77
2023/08/12 01:14:29;;;;;;;0.10;0.10;;;22.50;78.40;;;;;;5024481;28;20053;-77
2023/08/12 01:16:59;;;;;;;0.10;0.10;;;22.50;78.30;;;;;;5023373;28;20556;-77
2023/08/12 01:19:35;;;;;;;0.10;0.10;;;22.50;78.30;;;;;;5023691;28;20061;-77
2023/08/12 01:22:01;;;;;;;0.00;0.00;;;22.50;78.30;;;;;;5022521;28;20042;-77
2023/08/12 01:24:27;;;;;;;0.10;0.10;;;22.50;78.20;;;;;;5008503;28;20040;-77
2023/08/12 01:26:54;;;;;;;0.00;0.00;;;22.50;78.20;;;;;;5002373;28;20038;-77
2023/08/12 01:29:19;;;;;;;0.10;0.10;;;22.50;78.20;;;;;;5023035;28;20037;-77
2023/08/12 01:31:52;;;;;;;0.10;0.10;;;22.50;78.20;;;;;;5025598;28;20049;-77
2023/08/12 01:34:22;;;;;;;0.00;0.00;;;22.50;78.10;;;;;;5009698;28;20038;-77
2023/08/12 01:36:51;;;;;;;0.10;0.03;;;22.50;78.20;;;;;;5024547;28;20042;-77
2023/08/12 01:39:18;;;;;;;0.10;0.03;;;22.50;78.20;;;;;;5008942;28;20094;-76
2023/08/12 01:41:44;;;;;;;0.10;0.10;;;22.50;78.20;;;;;;5008112;28;20046;-77
2023/08/12 01:44:09;;;;;;;0.10;0.10;;;22.50;78.20;;;;;;4992522;28;20045;-77
2023/08/12 01:46:35;;;;;;;0.10;0.10;;;22.50;78.20;;;;;;5024665;28;20052;-77
2023/08/12 01:49:01;;;;;;;1.20;0.10;;;22.50;78.20;;;;;;5023572;28;20049;-77
2023/08/12 01:51:27;;;;;;;0.85;0.00;;;22.50;78.20;;;;;;4993301;28;20077;-77
2023/08/12 01:53:52;;;;;;;0.10;0.10;;;22.50;78.20;;;;;;5025927;28;20030;-77
2023/08/12 01:56:18;;;;;;;0.10;0.10;;;22.50;78.20;;;;;;5023745;28;20049;-77
2023/08/12 01:58:43;;;;;;;0.00;0.00;;;22.50;78.10;;;;;;5011652;28;20053;-77
2023/08/12 02:01:09;;;;;;;0.10;0.10;;;22.50;78.00;;;;;;5008378;28;20487;-77
2023/08/12 02:03:34;;;;;;;0.03;0.03;;;22.50;78.00;;;;;;5026000;28;20138;-77
2023/08/12 02:06:00;;;;;;;0.10;0.10;;;22.50;78.10;;;;;;5026990;28;20087;-77
2023/08/12 02:08:26;;;;;;;0.20;0.10;;;22.50;78.00;;;;;;5010244;28;20037;-77
2023/08/12 02:10:51;;;;;;;0.00;0.00;;;22.50;77.90;;;;;;5009183;28;20061;-77
2023/08/12 02:13:18;;;;;;;0.10;0.10;;;22.50;77.90;;;;;;5027775;28;20420;-77
2023/08/12 02:15:43;;;;;;;0.00;0.00;;;22.50;78.00;;;;;;5028059;28;20037;-77
2023/08/12 02:18:09;;;;;;;0.03;0.03;;;22.50;78.00;;;;;;5007160;28;20415;-77
2023/08/12 02:20:34;;;;;;;0.05;0.05;;;22.50;78.10;;;;;;5026178;28;20049;-77
2023/08/12 02:23:00;;;;;;;0.10;0.00;;;22.50;78.10;;;;;;5008258;28;20037;-77
2023/08/12 02:25:25;;;;;;;0.00;0.00;;;22.50;78.80;;;;;;4992765;28;20060;-77
2023/08/12 02:27:51;;;;;;;0.10;0.00;;;22.50;78.10;;;;;;5007302;28;20045;-77
2023/08/12 02:30:16;;;;;;;0.10;0.00;;;22.50;78.10;;;;;;5010147;28;20042;-77
2023/08/12 02:32:43;;;;;;;0.03;0.03;;;22.50;78.00;;;;;;5027047;28;20059;-77
2023/08/12 02:35:10;;;;;;;0.00;0.00;;;22.50;77.90;;;;;;5025147;28;20056;-77
2023/08/12 02:37:35;;;;;;;0.00;0.00;;;22.50;77.80;;;;;;5024248;28;20050;-77
2023/08/12 02:40:04;;;;;;;0.00;0.00;;;22.50;77.80;;;;;;5024785;28;20057;-77
2023/08/12 02:42:30;;;;;;;0.00;0.00;;;22.50;77.80;;;;;;5021989;28;20057;-77
2023/08/12 02:44:56;;;;;;;0.10;0.10;;;22.50;77.90;;;;;;5023275;28;20045;-77
2023/08/12 02:47:21;;;;;;;0.03;0.03;;;22.50;77.80;;;;;;5003281;28;20034;-77
2023/08/12 02:49:47;;;;;;;0.00;0.00;;;22.50;77.70;;;;;;5025761;28;20128;-77
2023/08/12 02:52:13;;;;;;;0.10;0.10;;;22.50;77.70;;;;;;5024765;28;20057;-77
2023/08/12 02:54:38;;;;;;;0.08;0.08;;;22.50;77.70;;;;;;5050865;28;20103;-77
2023/08/12 02:57:04;;;;;;;0.57;0.05;;;22.50;77.70;;;;;;5021655;28;20034;-77
2023/08/12 02:59:30;;;;;;;0.00;0.00;;;22.50;77.80;;;;;;5004316;28;20021;-77
2023/08/12 03:01:55;;;;;;;0.10;0.10;;;22.50;77.80;;;;;;5019151;28;20029;-77
2023/08/12 03:04:22;;;;;;;0.10;0.10;;;22.50;78.50;;;;;;5024214;28;20036;-77
2023/08/12 03:06:48;;;;;;;0.00;0.00;;;22.50;77.70;;;;;;5025284;28;20087;-77
2023/08/12 03:09:13;;;;;;;0.00;0.00;;;22.50;77.70;;;;;;5024008;28;20042;-77
2023/08/12 03:11:39;;;;;;;0.10;0.10;;;22.50;77.50;;;;;;5007850;28;20041;-77
2023/08/12 03:14:04;;;;;;;0.10;0.10;;;22.50;78.40;;;;;;5023622;28;20104;-76
2023/08/12 03:16:30;;;;;;;0.30;0.17;;;22.50;77.50;;;;;;5023906;28;20052;-77
2023/08/12 03:18:56;;;;;;;0.10;0.10;;;22.50;77.50;;;;;;5023786;28;20053;-77
2023/08/12 03:21:21;;;;;;;0.10;0.00;;;22.50;77.50;;;;;;5023530;28;20107;-77
2023/08/12 03:23:47;;;;;;;0.10;0.10;;;22.50;77.50;;;;;;5025310;28;20038;-77
2023/08/12 03:26:14;;;;;;;0.10;0.10;;;22.50;77.40;;;;;;5024216;28;20511;-77
2023/08/12 03:28:39;;;;;;;0.05;0.05;;;22.50;77.40;;;;;;5022919;28;20038;-77
2023/08/12 03:31:05;;;;;;;0.10;0.10;;;22.50;77.40;;;;;;5023327;28;20061;-77
2023/08/12 03:33:32;;;;;;;0.00;0.00;;;22.50;77.30;;;;;;5020514;28;20079;-77
2023/08/12 03:35:57;;;;;;;0.15;0.15;;;22.40;77.30;;;;;;5024176;28;20025;-77
2023/08/12 03:38:23;;;;;;;0.10;0.10;;;22.50;77.40;;;;;;5002223;28;20406;-77
2023/08/12 03:40:49;;;;;;;0.03;0.03;;;22.50;77.30;;;;;;5023935;28;20026;-77
2023/08/12 03:43:15;;;;;;;0.00;0.00;;;22.50;77.40;;;;;;5023704;28;20052;-77
2023/08/12 03:45:41;;;;;;;0.05;0.05;;;22.50;77.30;;;;;;5024972;28;20503;-77
2023/08/12 03:48:07;;;;;;;0.10;0.10;;;22.50;77.30;;;;;;5023738;28;20037;-77
2023/08/12 03:50:36;;;;;;;0.10;0.10;;;22.40;77.20;;;;;;5022187;28;20557;-77
2023/08/12 03:53:02;;;;;;;0.00;0.00;;;22.50;77.20;;;;;;5024393;28;20053;-77
2023/08/12 03:55:30;;;;;;;0.17;0.10;;;22.50;77.20;;;;;;4991043;28;20037;-77
2023/08/12 03:57:56;;;;;;;0.10;0.10;;;22.50;77.90;;;;;;5023472;28;20033;-77
2023/08/12 04:00:22;;;;;;;0.40;0.10;;;22.50;77.10;;;;;;5022368;28;26483;-77
2023/08/12 04:02:47;;;;;;;0.20;0.10;;;22.50;77.20;;;;;;5025352;28;20034;-77
2023/08/12 04:05:13;;;;;;;0.10;0.10;;;22.50;77.10;;;;;;5003293;28;20034;-77
2023/08/12 04:07:38;;;;;;;0.40;0.30;;;22.50;77.20;;;;;;5009005;28;20102;-77
2023/08/12 04:10:04;;;;;;;0.25;0.10;;;22.50;77.10;;;;;;5022789;28;20102;-77
2023/08/12 04:12:30;;;;;;;0.10;0.10;;;22.40;77.00;;;;;;5008960;28;20068;-77
2023/08/12 04:14:55;;;;;;;0.10;0.10;;;22.50;77.10;;;;;;5027837;28;20102;-77
2023/08/12 04:17:21;;;;;;;0.08;0.08;;;22.50;77.10;;;;;;5010540;28;20069;-77
2023/08/12 04:19:46;;;;;;;0.10;0.10;;;22.50;77.10;;;;;;5026298;28;20042;-77
2023/08/12 04:22:12;;;;;;;0.00;0.00;;;22.50;77.90;;;;;;5026606;28;20046;-77
2023/08/12 04:24:38;;;;;;;0.10;0.10;;;22.50;77.10;;;;;;5028776;28;20037;-77
2023/08/12 04:27:03;;;;;;;0.10;0.10;;;22.40;76.90;;;;;;5028052;28;20029;-77
2023/08/12 04:29:29;;;;;;;0.03;0.03;;;22.40;76.90;;;;;;5008329;28;20045;-77
2023/08/12 04:31:55;;;;;;;0.10;0.00;;;22.50;77.00;;;;;;5026464;28;20037;-77
2023/08/12 04:34:20;;;;;;;0.17;0.10;;;22.40;76.90;;;;;;5011037;28;20038;-77
2023/08/12 04:36:46;;;;;;;0.10;0.10;;;22.40;76.90;;;;;;5010019;28;20046;-77
2023/08/12 04:39:11;;;;;;;0.10;0.10;;;22.40;76.90;;;;;;5027432;28;20518;-77
2023/08/12 04:41:38;;;;;;;0.10;0.10;;;22.40;76.80;;;;;;5027269;28;20061;-77
2023/08/12 04:44:04;;;;;;;0.10;0.10;;;22.40;76.90;;;;;;5027048;28;20037;-77
2023/08/12 04:46:30;;;;;;;0.10;0.10;;;22.40;76.80;;;;;;5027375;28;20095;-77
2023/08/12 04:48:56;;;;;;;0.10;0.10;;;22.40;76.80;;;;;;5026781;28;20132;-77
2023/08/12 04:51:21;;;;;;;0.13;0.10;;;22.40;76.80;;;;;;5024707;28;20150;-77
2023/08/12 04:53:47;;;;;;;0.08;0.08;;;22.40;76.80;;;;;;5026158;28;20499;-77
2023/08/12 04:56:12;;;;;;;0.20;0.10;;;22.40;76.80;;;;;;5026043;28;20116;-77
2023/08/12 04:58:38;;;;;;;0.10;0.10;;;22.40;76.70;;;;;;5024632;28;20033;-77
2023/08/12 05:01:03;;;;;;;0.68;0.10;;;22.40;76.70;;;;;;5009411;28;20495;-77
2023/08/12 05:03:29;;;;;;;0.10;0.10;;;22.40;76.80;;;;;;5027008;28;20048;-77
2023/08/12 05:05:55;;;;;;;0.10;0.10;;;22.40;76.70;;;;;;5030089;28;20045;-77
2023/08/12 05:08:20;;;;;;;0.32;0.10;;;22.40;76.70;;;;;;5027762;28;20045;-77
2023/08/12 05:10:49;;;;;;;0.20;0.10;;;22.40;76.70;;;;;;5011320;28;20052;-77
2023/08/12 05:13:15;;;;;;;0.10;0.10;;;22.40;76.60;;;;;;5024786;28;20815;-77
2023/08/12 05:15:40;;;;;;;0.10;0.10;;;22.40;76.70;;;;;;5026350;28;20076;-77
2023/08/12 05:18:06;;;;;;;0.28;0.10;;;22.40;76.60;;;;;;5026969;28;20176;-77
2023/08/12 05:20:32;;;;;;;0.20;0.20;;;22.40;76.60;;;;;;5010460;28;20044;-77
2023/08/12 05:22:57;;;;;;;0.08;0.08;;;22.40;76.60;;;;;;5026783;28;20461;-77
2023/08/12 05:25:23;;;;;;;0.10;0.10;;;22.40;76.60;;;;;;5055994;28;20109;-77
2023/08/12 05:27:49;;;;;;;0.10;0.10;;;22.40;76.60;;;;;;5027342;28;20473;-77
2023/08/12 05:30:15;;;;;;;0.10;0.10;;;22.40;76.60;;;;;;5026575;28;20131;-77
2023/08/12 05:32:40;;;;;;;0.10;0.10;;;22.40;76.60;;;;;;5028060;28;20073;-77
2023/08/12 05:35:06;;;;;;;0.25;0.10;;;22.40;76.50;;;;;;5022220;28;20049;-77
2023/08/12 05:37:32;;;;;;;0.10;0.10;;;22.40;76.50;;;;;;5025918;28;20063;-77
2023/08/12 05:39:57;;;;;;;0.22;0.22;;;22.40;76.50;;;;;;5026494;28;20041;-77
2023/08/12 05:42:23;;;;;;;0.57;0.20;;;22.40;76.50;;;;;;5025999;28;20538;-77
2023/08/12 05:44:48;;;;;;;0.10;0.10;;;22.40;76.40;;;;;;5027205;28;20042;-77
2023/08/12 05:47:14;;;;;;;0.10;0.10;;;22.40;76.40;;;;;;5025268;28;20455;-77
2023/08/12 05:49:40;;;;;;;0.20;0.20;;;22.40;76.40;;;;;;5024975;28;20099;-76
2023/08/12 05:52:05;;;;;;;0.10;0.00;;;22.40;77.10;;;;;;5023598;28;20128;-77
2023/08/12 05:54:31;;;;;;;0.03;0.00;;;22.40;76.40;;;;;;5025457;28;20120;-77
2023/08/12 05:56:56;;;;;;;0.10;0.10;;;22.40;76.40;;;;;;5027109;28;20068;-77
2023/08/12 05:59:22;;;;;;;0.10;0.10;;;22.40;76.30;;;;;;5024456;28;20405;-77
2023/08/12 06:01:47;;;;;;;0.10;0.10;;;22.40;76.40;;;;;;5007180;28;20104;-77
2023/08/12 06:04:13;;;;;;;0.00;0.00;;;22.40;77.10;;;;;;5025505;28;20053;-77
2023/08/12 06:06:38;;;;;;;0.50;0.20;;;22.40;76.30;;;;;;5008410;28;20049;-77
2023/08/12 06:09:04;;;;;;;0.10;0.10;;;22.40;76.20;;;;;;5005754;28;20034;-77
2023/08/12 06:11:30;;;;;;;0.73;0.32;;;22.40;76.20;;;;;;5024308;28;20095;-77
2023/08/12 06:13:55;;;;;;;0.30;0.20;;;22.40;76.20;;;;;;5025708;28;20121;-77
2023/08/12 06:16:21;;;;;;;0.20;0.20;;;22.40;76.90;;;;;;5023544;28;20080;-77
2023/08/12 06:18:47;;;;;;;0.20;0.20;;;22.40;76.90;;;;;;5025176;28;20462;-77
2023/08/12 06:21:12;;;;;;;0.30;0.30;;;22.40;76.20;;;;;;5025468;28;20055;-77
2023/08/12 06:23:38;;;;;;;0.50;0.30;;;22.40;76.20;;;;;;5025611;28;20071;-77
2023/08/12 06:26:03;;;;;;;1.45;0.22;;;22.40;76.10;;;;;;5023226;28;20091;-77
2023/08/12 06:28:29;;;;;;;0.10;0.10;;;22.40;76.10;;;;;;5023198;28;20052;-77
2023/08/12 06:30:54;;;;;;;0.13;0.13;;;22.40;76.10;;;;;;5024352;28;20511;-77
2023/08/12 06:33:20;;;;;;;0.38;0.22;;;22.40;76.10;;;;;;5024913;28;20045;-77
2023/08/12 06:35:46;;;;;;;0.30;0.10;;;22.40;76.10;;;;;;5026424;28;20047;-77
2023/08/12 06:38:13;;;;;;;0.10;0.10;;;22.40;76.10;;;;;;5024987;28;20049;-77
2023/08/12 06:40:38;;;;;;;0.10;0.10;;;22.40;76.00;;;;;;5024377;28;20033;-77
2023/08/12 06:43:04;;;;;;;1.00;0.10;;;22.40;76.10;;;;;;5024605;28;20095;-77
2023/08/12 06:45:30;;;;;;;0.20;0.10;;;22.40;76.80;;;;;;5019423;28;20040;-77
2023/08/12 06:47:55;;;;;;;0.13;0.10;;;22.40;76.00;;;;;;5026158;28;20045;-77
2023/08/12 06:50:21;;;;;;;0.10;0.10;;;22.40;76.00;;;;;;5023599;28;20041;-77
2023/08/12 06:52:46;;;;;;;0.30;0.22;;;22.40;75.90;;;;;;5007626;28;20129;-77
2023/08/12 06:55:12;;;;;;;0.25;0.25;;;22.40;76.00;;;;;;5024523;28;20121;-77
2023/08/12 06:57:37;;;;;;;0.35;0.25;;;22.40;76.10;;;;;;5024769;28;20049;-77
2023/08/12 07:00:05;;;;;;;0.30;0.30;;;22.40;76.00;;;;;;5051875;28;20069;-77
2023/08/12 07:02:30;;;;;;;0.30;0.10;;;22.40;76.00;;;;;;5022684;28;20578;-77
2023/08/12 07:04:56;;;;;;;0.40;0.20;;;22.40;76.00;;;;;;5021209;28;20136;-77
2023/08/12 07:07:22;;;;;;;0.28;0.22;;;22.40;75.90;;;;;;5020802;28;20045;-77
2023/08/12 07:09:47;;;;;;;0.50;0.20;;;22.40;76.00;;;;;;5007553;28;20092;-77
2023/08/12 07:12:13;;;;;;;0.20;0.20;;;22.40;75.90;;;;;;5007189;28;20033;-77
2023/08/12 07:14:38;;;;;;;0.30;0.25;;;22.40;75.90;;;;;;5024801;28;20049;-77
2023/08/12 07:17:04;;;;;;;0.10;0.10;;;22.40;75.80;;;;;;5023785;28;20069;-77
2023/08/12 07:19:29;;;;;;;1.33;0.20;;;22.40;75.80;;;;;;5009256;28;20101;-77
2023/08/12 07:21:55;;;;;;;0.10;0.10;;;22.40;75.80;;;;;;5008300;28;20067;-77
2023/08/12 07:24:20;;;;;;;0.17;0.17;;;22.40;75.80;;;;;;5023515;28;20076;-77
2023/08/12 07:26:46;;;;;;;0.32;0.20;;;22.40;75.90;;;;;;5026696;28;20099;-77
2023/08/12 07:29:12;;;;;;;0.20;0.20;;;22.40;75.80;;;;;;5024896;28;20116;-77
2023/08/12 07:31:37;;;;;;;0.43;0.22;;;22.40;75.80;;;;;;5025352;28;20519;-77
2023/08/12 07:34:03;;;;;;;0.32;0.10;;;22.40;75.80;;;;;;5023198;28;20048;-77
2023/08/12 07:36:28;;;;;;;0.28;0.20;;;22.40;75.70;;;;;;5009186;28;20518;-77
2023/08/12 07:38:54;;;;;;;1.40;0.30;;;22.40;75.70;;;;;;5025621;28;20052;-77
2023/08/12 07:41:20;;;;;;;0.20;0.20;;;22.40;75.70;;;;;;5023037;28;20038;-77
2023/08/12 07:43:45;;;;;;;0.85;0.30;;;22.40;75.70;;;;;;5023717;28;20041;-77
2023/08/12 07:46:11;;;;;;;0.20;0.20;;;22.40;75.70;;;;;;5026788;28;20037;-77
2023/08/12 07:48:37;;;;;;;0.45;0.30;;;22.40;76.40;;;;;;5026401;28;20041;-77
2023/08/12 07:51:03;;;;;;;0.20;0.20;;;22.50;75.60;;;;;;5029976;28;20484;-77
2023/08/12 07:53:29;;;;;;;0.10;0.10;;;22.40;75.50;;;;;;5027854;28;20457;-77
2023/08/12 07:55:54;;;;;;;0.28;0.28;;;22.40;75.60;;;;;;5028655;28;20138;-77
2023/08/12 07:58:20;;;;;;;0.40;0.20;;;22.50;75.60;;;;;;5027315;28;20041;-77
2023/08/12 08:00:45;;;;;;;0.20;0.20;;;22.40;76.30;;;;;;5026248;28;20034;-77
2023/08/12 08:03:11;;;;;;;0.30;0.28;;;22.50;75.50;;;;;;5026719;28;20040;-77
2023/08/12 08:05:40;;;;;;;0.28;0.20;;;22.50;75.50;;;;;;5027563;28;20049;-77
2023/08/12 08:08:06;;;;;;;0.20;0.20;;;22.50;75.60;;;;;;5026625;28;20120;-77
2023/08/12 08:10:31;;;;;;;0.20;0.20;;;22.50;75.50;;;;;;5010161;28;20117;-78
2023/08/12 08:12:57;;;;;;;0.30;0.30;;;22.50;75.50;;;;;;5026110;28;20050;-78
2023/08/12 08:15:23;;;;;;;0.73;0.20;;;22.40;75.60;;;;;;5023892;28;20510;-77
2023/08/12 08:17:48;;;;;;;0.30;0.22;;;22.40;75.70;;;;;;5027371;28;20026;-77
2023/08/12 08:20:14;;;;;;;0.38;0.38;;;22.40;75.70;;;;;;5041675;28;20057;-77
2023/08/12 08:22:39;;;;;;;0.20;0.20;;;22.40;75.60;;;;;;5026576;28;20033;-77
2023/08/12 08:25:06;;;;;;;0.30;0.30;;;22.40;75.70;;;;;;5027261;28;20045;-77
2023/08/12 08:27:33;;;;;;;0.47;0.38;;;22.50;75.60;;;;;;5036951;28;20502;-77
2023/08/12 08:29:58;;;;;;;0.90;0.57;;;22.50;75.60;;;;;;5008627;28;20611;-77
2023/08/12 08:32:24;;;;;;;0.60;0.30;;;22.50;75.50;;;;;;5027567;28;20120;-77
2023/08/12 08:34:49;;;;;;;0.45;0.20;;;22.40;75.50;;;;;;5024384;28;20523;-77
2023/08/12 08:37:15;;;;;;;0.25;0.20;;;22.50;75.60;;;;;;5011005;28;21555;-77
2023/08/12 08:39:41;;;;;;;0.38;0.30;;;22.50;76.40;;;;;;5026650;28;20064;-77
2023/08/12 08:42:06;;;;;;;0.47;0.30;;;22.50;75.60;;;;;;5010947;28;20041;-77
2023/08/12 08:44:32;;;;;;;0.43;0.43;;;22.50;75.50;;;;;;5026284;28;20065;-77
2023/08/12 08:46:59;;;;;;;0.30;0.30;;;22.50;75.60;;;;;;5025055;28;20296;-77
2023/08/12 08:49:24;;;;;;;0.30;0.30;;;22.50;75.50;;;;;;5026258;28;20037;-78
2023/08/12 08:51:50;;;;;;;0.43;0.43;;;22.50;75.50;;;;;;5026164;28;20477;-77
2023/08/12 08:54:15;;;;;;;0.45;0.30;;;22.50;75.60;;;;;;5011041;28;20042;-78
2023/08/12 08:56:41;;;;;;;0.40;0.38;;;22.50;75.50;;;;;;5027450;28;20137;-78
2023/08/12 08:59:06;;;;;;;0.40;0.40;;;22.50;75.40;;;;;;5026057;28;20050;-78
2023/08/12 09:01:32;;;;;;;0.30;0.30;;;22.50;75.60;;;;;;5026605;28;20038;-78
2023/08/12 09:03:58;;;;;;;0.52;0.50;;;22.60;75.60;;;;;;5022661;28;20054;-78
2023/08/12 09:06:27;;;;;;;0.40;0.40;;;22.60;75.40;;;;;;4991430;28;20057;-77
2023/08/12 09:08:53;;;;;;;0.30;0.30;;;22.60;75.40;;;;;;5027587;28;20434;-77
2023/08/12 09:11:18;;;;;;;0.40;0.30;;;22.60;75.10;;;;;;5009820;28;20041;-78
2023/08/12 09:13:45;;;;;;;0.30;0.20;;;22.60;75.30;;;;;;5026706;28;20036;-77
2023/08/12 09:16:10;;;;;;;0.43;0.22;;;22.60;75.40;;;;;;5026099;28;20048;-77
2023/08/12 09:18:37;;;;;;;0.40;0.30;;;22.60;74.90;;;;;;5025489;28;20449;-78
2023/08/12 09:21:03;;;;;;;0.77;0.45;;;22.60;74.80;;;;;;5027818;28;20501;-78
2023/08/12 09:23:28;;;;;;;0.47;0.40;;;22.60;74.70;;;;;;5025337;28;20542;-77
2023/08/12 09:25:54;;;;;;;0.50;0.40;;;22.60;74.70;;;;;;5026255;28;20182;-78
2023/08/12 09:28:20;;;;;;;0.32;0.32;;;22.60;75.60;;;;;;5026115;28;20446;-78
2023/08/12 09:30:52;;;;;;;0.45;0.45;;;22.60;75.10;;;;;;5008057;28;20037;-77
2023/08/12 09:33:23;;;;;;;0.40;0.30;;;22.60;74.80;;;;;;5025866;28;20100;-78
2023/08/12 09:35:49;;;;;;;0.32;0.32;;;22.60;74.80;;;;;;5025544;28;20034;-78
2023/08/12 09:38:15;;;;;;;0.40;0.40;;;22.60;74.50;;;;;;5023060;28;20056;-77
2023/08/12 09:40:40;;;;;;;0.60;0.40;;;22.60;74.50;;;;;;5022002;28;20430;-78
2023/08/12 09:43:06;;;;;;;0.73;0.40;;;22.60;74.60;;;;;;5025705;28;20050;-78
2023/08/12 09:45:33;;;;;;;0.43;0.35;;;22.60;74.60;;;;;;5007884;28;20022;-78
2023/08/12 09:47:58;;;;;;;0.57;0.57;;;22.70;74.60;;;;;;5027122;28;20047;-78
2023/08/12 09:50:25;;;;;;;0.25;0.25;;;22.70;74.50;;;;;;5025060;28;20112;-78
2023/08/12 09:52:51;;;;;;;0.40;0.40;;;22.70;74.60;;;;;;5008970;28;20107;-78
2023/08/12 09:55:19;;;;;;;0.20;0.20;;;22.70;74.70;;;;;;5026341;28;20083;-78
2023/08/12 09:57:48;;;;;;;1.50;0.50;;;22.70;74.60;;;;;;5024397;28;20491;-78
2023/08/12 10:00:16;;;;;;;0.20;0.20;;;22.70;74.60;;;;;;5009821;28;20458;-78
2023/08/12 10:02:43;;;;;;;0.28;0.28;;;22.70;74.60;;;;;;5024777;28;20045;-78
2023/08/12 10:05:10;;;;;;;0.47;0.47;;;22.70;74.50;;;;;;5024429;28;20414;-78
2023/08/12 10:07:36;;;;;;;0.55;0.40;;;22.70;74.30;;;;;;5008410;28;20072;-78
2023/08/12 10:10:02;;;;;;;0.57;0.30;;;22.70;74.40;;;;;;5007034;28;20041;-78
2023/08/12 10:12:27;;;;;;;0.55;0.43;;;22.70;74.40;;;;;;5008704;28;20064;-78
2023/08/12 10:14:53;;;;;;;0.50;0.45;;;22.70;74.30;;;;;;5025540;28;20057;-78
2023/08/12 10:17:19;;;;;;;0.40;0.40;;;22.70;74.40;;;;;;5025060;28;20398;-78
2023/08/12 10:19:45;;;;;;;0.63;0.50;;;22.80;74.40;;;;;;5009347;28;20496;-78
2023/08/12 10:22:10;;;;;;;0.45;0.30;;;22.70;74.30;;;;;;5025466;28;20033;-78
2023/08/12 10:24:36;;;;;;;0.43;0.30;;;22.80;74.40;;;;;;5026915;28;20045;-78
2023/08/12 10:27:02;;;;;;;0.60;0.32;;;22.80;74.40;;;;;;5028781;28;20042;-78
2023/08/12 10:29:27;;;;;;;0.40;0.40;;;22.80;74.30;;;;;;5026473;28;20040;-78
2023/08/12 10:31:53;;;;;;;0.40;0.40;;;22.80;74.40;;;;;;4992381;28;20049;-78
2023/08/12 10:34:22;;;;;;;0.30;0.30;;;22.80;74.40;;;;;;5008918;28;20125;-78
2023/08/12 10:36:48;;;;;;;1.30;0.35;;;22.80;74.40;;;;;;5024624;28;20115;-78
2023/08/12 10:39:14;;;;;;;0.28;0.28;;;22.80;74.50;;;;;;5010388;28;20488;-78
2023/08/12 10:41:43;;;;;;;0.32;0.32;;;22.80;74.40;;;;;;5040938;28;20073;-78
2023/08/12 10:44:08;;;;;;;0.50;0.50;;;22.80;74.40;;;;;;5025085;28;20037;-78
2023/08/12 10:46:35;;;;;;;0.70;0.70;;;22.80;74.30;;;;;;5022952;28;20064;-78
2023/08/12 10:49:08;;;;;;;0.55;0.40;;;22.80;74.40;;;;;;5025976;28;20064;-78
2023/08/12 10:51:52;;;;;;;1.00;0.50;;;22.80;74.40;;;;;;5022837;28;20042;-78
2023/08/12 10:54:30;;;;;;;0.30;0.30;;;22.80;74.10;;;;;;5024861;28;20043;-78
2023/08/12 10:57:05;;;;;;;0.40;0.40;;;22.80;74.20;;;;;;4993010;28;20049;-78
2023/08/12 10:59:45;;;;;;;0.75;0.52;;;22.80;74.00;;;;;;5024062;28;20041;-78
2023/08/12 11:02:36;;;;;;;0.50;0.40;;;22.80;74.10;;;;;;5024346;28;20134;-78
2023/08/12 11:05:11;;;;;;;0.80;0.40;;;22.80;74.10;;;;;;5020837;28;20037;-78
2023/08/12 11:08:00;;;;;;;0.40;0.40;;;22.80;74.10;;;;;;5023691;28;20048;-78
2023/08/12 11:10:27;;;;;;;0.55;0.50;;;22.80;74.20;;;;;;5022327;28;20414;-78
2023/08/12 11:12:56;;;;;;;0.43;0.30;;;22.80;74.20;;;;;;5025441;28;20063;-78
2023/08/12 11:15:41;;;;;;;0.55;0.40;;;22.80;74.00;;;;;;5023595;28;20038;-78
2023/08/12 11:18:12;;;;;;;0.28;0.25;;;22.80;74.00;;;;;;5036679;28;20064;-78
2023/08/12 11:20:38;;;;;;;0.43;0.40;;;22.80;73.90;;;;;;5023976;28;20076;-78
2023/08/12 11:23:04;;;;;;;0.50;0.50;;;22.80;74.00;;;;;;5024853;28;20069;-78
2023/08/12 11:25:30;;;;;;;0.30;0.30;;;22.90;74.00;;;;;;5024704;28;20059;-78
2023/08/12 11:27:56;;;;;;;0.77;0.40;;;22.80;73.90;;;;;;5026500;28;20046;-78
2023/08/12 11:30:22;;;;;;;0.40;0.40;;;22.80;74.00;;;;;;5024612;28;20049;-78
2023/08/12 11:32:51;;;;;;;0.60;0.60;;;22.80;74.10;;;;;;5024735;28;20507;-78
2023/08/12 11:35:17;;;;;;;0.70;0.40;;;22.80;74.90;;;;;;5024547;28;20411;-78
2023/08/12 11:37:48;;;;;;;0.50;0.50;;;22.80;74.10;;;;;;5006412;28;20057;-78
2023/08/12 11:40:15;;;;;;;0.50;0.50;;;22.80;74.10;;;;;;5023155;28;20045;-78
2023/08/12 11:42:41;;;;;;;0.40;0.32;;;22.80;74.10;;;;;;5021387;28;20414;-78
2023/08/12 11:45:07;;;;;;;0.55;0.47;;;22.80;74.00;;;;;;5023095;28;20041;-78
2023/08/12 11:47:37;;;;;;;0.68;0.50;;;22.80;74.00;;;;;;5022564;28;20037;-78
2023/08/12 11:50:03;;;;;;;0.52;0.38;;;22.80;74.00;;;;;;5004672;28;20049;-78
2023/08/12 11:52:29;;;;;;;0.50;0.30;;;22.80;74.00;;;;;;5023091;28;20038;-78
2023/08/12 11:54:55;;;;;;;0.47;0.40;;;22.80;74.00;;;;;;5021626;28;20774;-78
2023/08/12 11:57:22;;;;;;;0.52;0.40;;;22.80;74.00;;;;;;5023905;28;21051;-78
2023/08/12 11:59:47;;;;;;;0.50;0.40;;;22.80;74.00;;;;;;5023561;28;20614;-78
2023/08/12 12:02:13;;;;;;;0.52;0.52;;;22.80;74.00;;;;;;5023749;28;20045;-78
2023/08/12 12:04:39;;;;;;;0.50;0.50;;;22.80;74.00;;;;;;5004216;28;20708;-78
2023/08/12 12:07:23;;;;;;;0.47;0.47;;;22.80;74.00;;;;;;5009033;28;20057;-78
2023/08/12 12:09:52;;;;;;;0.50;0.50;;;22.80;73.90;;;;;;5007478;28;20473;-78
2023/08/12 12:12:21;;;;;;;0.52;0.38;;;22.80;73.90;;;;;;5020136;28;20049;-78
2023/08/12 12:14:47;;;;;;;0.50;0.50;;;22.80;74.00;;;;;;5021708;28;20495;-78
2023/08/12 12:17:14;;;;;;;0.40;0.40;;;22.80;73.90;;;;;;5005939;28;20045;-78
2023/08/12 12:19:40;;;;;;;0.50;0.50;;;22.80;73.90;;;;;;5023644;28;20127;-78
2023/08/12 12:22:06;;;;;;;0.40;0.40;;;22.80;73.90;;;;;;5024462;28;20065;-78
2023/08/12 12:24:31;;;;;;;0.60;0.40;;;22.90;73.80;;;;;;5022496;28;20049;-78
2023/08/12 12:26:57;;;;;;;0.40;0.40;;;22.80;73.80;;;;;;5024557;28;20103;-78
2023/08/12 12:29:23;;;;;;;0.52;0.38;;;22.90;73.70;;;;;;5022024;28;20233;-79
2023/08/12 12:31:48;;;;;;;0.60;0.60;;;22.90;73.60;;;;;;5023672;28;20054;-78
2023/08/12 12:34:14;;;;;;;0.82;0.60;;;22.90;73.70;;;;;;5009676;28;20060;-78
2023/08/12 12:36:40;;;;;;;0.88;0.60;;;22.90;73.60;;;;;;5026369;28;20083;-78
2023/08/12 12:39:06;;;;;;;0.45;0.45;;;22.90;73.70;;;;;;5026671;28;20065;-78
2023/08/12 12:41:32;;;;;;;0.60;0.60;;;22.90;73.70;;;;;;5025782;28;20084;-78
2023/08/12 12:43:59;;;;;;;0.32;0.32;;;22.90;73.80;;;;;;5027185;28;20045;-78